Time,TemperatureF,DewpointF,PressureIn,WindDirection,WindDirectionDegrees,WindSpeedMPH,WindSpeedGustMPH,Humidity,HourlyPrecipIn,Conditions,Clouds,dailyrainin,SolarRadiationWatts/m^2,SoftwareType,DateUTC
2013-04-27 00:02:00,31.0,12.0,-100.00,NW,316,3.0,7.0,45,0.00,,,0.00,0.000000,,2013-04-27 06:02:00,
2013-04-27 00:32:00,28.0,14.0,-100.00,WNW,290,2.0,5.0,54,0.00,,,0.00,0.000000,,2013-04-27 06:32:00,
2013-04-27 00:42:00,28.0,14.0,-100.00,WNW,290,2.0,5.0,54,0.00,,,0.00,0.000000,,2013-04-27 06:42:00,
2013-04-27 00:52:00,28.0,14.0,-100.00,WNW,290,2.0,5.0,54,0.00,,,0.00,0.000000,,2013-04-27 06:52:00,
2013-04-27 01:01:00,28.0,14.0,-100.00,WNW,290,2.0,5.0,54,0.00,,,0.00,0.000000,,2013-04-27 07:01:00,
2013-04-27 01:32:00,27.0,15.0,-100.00,NNW,339,1.0,3.0,59,0.00,,,0.00,0.000000,,2013-04-27 07:32:00,
2013-04-27 01:42:00,27.0,15.0,-100.00,NNW,339,1.0,3.0,59,0.00,,,0.00,0.000000,,2013-04-27 07:42:00,
2013-04-27 01:52:00,27.0,15.0,-100.00,NNW,339,1.0,3.0,59,0.00,,,0.00,0.000000,,2013-04-27 07:52:00,
2013-04-27 02:01:00,27.0,15.0,-100.00,NNW,339,1.0,3.0,59,0.00,,,0.00,0.000000,,2013-04-27 08:01:00,
2013-04-27 02:33:00,26.0,15.0,-100.00,NW,312,3.0,4.0,63,0.00,,,0.00,0.000000,,2013-04-27 08:33:00,
2013-04-27 02:42:00,26.0,15.0,-100.00,NW,312,3.0,4.0,63,0.00,,,0.00,0.000000,,2013-04-27 08:42:00,
2013-04-27 02:52:00,26.0,15.0,-100.00,NW,312,3.0,4.0,63,0.00,,,0.00,0.000000,,2013-04-27 08:52:00,
2013-04-27 03:01:00,26.0,15.0,-100.00,NW,312,3.0,4.0,63,0.00,,,0.00,0.000000,,2013-04-27 09:01:00,
2013-04-27 03:33:00,24.0,15.0,-100.00,NW,307,2.0,5.0,68,0.00,,,0.00,0.000000,,2013-04-27 09:33:00,
2013-04-27 03:43:00,24.0,15.0,-100.00,NW,307,2.0,5.0,68,0.00,,,0.00,0.000000,,2013-04-27 09:43:00,
2013-04-27 03:53:00,24.0,15.0,-100.00,NW,307,2.0,5.0,68,0.00,,,0.00,0.000000,,2013-04-27 09:53:00,
2013-04-27 04:02:00,24.0,15.0,-100.00,NW,307,2.0,5.0,68,0.00,,,0.00,0.000000,,2013-04-27 10:02:00,
2013-04-27 04:33:00,23.0,14.0,-100.00,NE,41,1.0,4.0,69,0.00,,,0.00,0.000000,,2013-04-27 10:33:00,
2013-04-27 04:42:00,23.0,14.0,-100.00,NE,41,1.0,4.0,69,0.00,,,0.00,0.000000,,2013-04-27 10:42:00,
2013-04-27 04:52:00,23.0,14.0,-100.00,NE,41,1.0,4.0,69,0.00,,,0.00,0.000000,,2013-04-27 10:52:00,
2013-04-27 05:02:00,23.0,14.0,-100.00,NE,41,1.0,4.0,69,0.00,,,0.00,0.000000,,2013-04-27 11:02:00,
2013-04-27 05:32:00,22.0,13.0,-100.00,NW,308,3.0,5.0,69,0.00,,,0.00,0.000000,,2013-04-27 11:32:00,
2013-04-27 05:42:00,22.0,13.0,-100.00,NW,308,3.0,5.0,69,0.00,,,0.00,0.000000,,2013-04-27 11:42:00,
2013-04-27 05:52:00,22.0,13.0,-100.00,NW,308,3.0,5.0,69,0.00,,,0.00,0.000000,,2013-04-27 11:52:00,
2013-04-27 06:01:00,22.0,13.0,-100.00,NW,308,3.0,5.0,69,0.00,,,0.00,0.000000,,2013-04-27 12:01:00,
2013-04-27 06:32:00,21.0,15.0,-100.00,NW,321,3.0,4.0,76,0.00,,,0.00,0.000000,,2013-04-27 12:32:00,
2013-04-27 06:42:00,21.0,15.0,-100.00,NW,321,3.0,4.0,76,0.00,,,0.00,0.000000,,2013-04-27 12:42:00,
2013-04-27 06:52:00,21.0,15.0,-100.00,NW,321,3.0,4.0,76,0.00,,,0.00,0.000000,,2013-04-27 12:52:00,
2013-04-27 07:02:00,21.0,15.0,-100.00,NW,321,3.0,4.0,76,0.00,,,0.00,0.000000,,2013-04-27 13:02:00,
2013-04-27 07:32:00,25.0,16.0,-100.00,North,350,2.0,4.0,67,0.00,,,0.00,57.000000,,2013-04-27 13:32:00,
2013-04-27 07:42:00,25.0,16.0,-100.00,North,350,2.0,4.0,67,0.00,,,0.00,57.000000,,2013-04-27 13:42:00,
2013-04-27 07:52:00,25.0,16.0,-100.00,North,350,2.0,4.0,67,0.00,,,0.00,57.000000,,2013-04-27 13:52:00,
2013-04-27 08:02:00,25.0,16.0,-100.00,North,350,2.0,4.0,67,0.00,,,0.00,57.000000,,2013-04-27 14:02:00,
2013-04-27 08:32:00,34.0,16.0,-100.00,NNE,20,4.0,8.0,48,0.00,,,0.00,299.000000,,2013-04-27 14:32:00,
2013-04-27 08:42:00,34.0,16.0,-100.00,NNE,20,4.0,8.0,48,0.00,,,0.00,299.000000,,2013-04-27 14:42:00,
2013-04-27 08:52:00,34.0,16.0,-100.00,NNE,20,4.0,8.0,48,0.00,,,0.00,299.000000,,2013-04-27 14:52:00,
2013-04-27 09:01:00,34.0,16.0,-100.00,NNE,20,4.0,8.0,48,0.00,,,0.00,299.000000,,2013-04-27 15:01:00,
2013-04-27 09:33:00,42.0,16.0,-100.00,East,82,2.0,6.0,35,0.00,,,0.00,555.000000,,2013-04-27 15:33:00,
2013-04-27 09:43:00,42.0,16.0,-100.00,East,82,2.0,6.0,35,0.00,,,0.00,555.000000,,2013-04-27 15:43:00,
2013-04-27 09:53:00,42.0,16.0,-100.00,East,82,2.0,6.0,35,0.00,,,0.00,555.000000,,2013-04-27 15:53:00,
2013-04-27 10:03:00,42.0,16.0,-100.00,East,82,2.0,6.0,35,0.00,,,0.00,555.000000,,2013-04-27 16:03:00,
2013-04-27 10:33:00,46.0,7.0,-100.00,NNW,347,7.0,17.0,20,0.00,,,0.00,792.000000,,2013-04-27 16:33:00,
2013-04-27 10:42:00,46.0,7.0,-100.00,NNW,347,7.0,17.0,20,0.00,,,0.00,792.000000,,2013-04-27 16:42:00,
2013-04-27 10:53:00,46.0,7.0,-100.00,NNW,347,7.0,17.0,20,0.00,,,0.00,792.000000,,2013-04-27 16:53:00,
2013-04-27 11:02:00,46.0,7.0,-100.00,NNW,347,7.0,17.0,20,0.00,,,0.00,792.000000,,2013-04-27 17:02:00,
2013-04-27 11:32:00,48.0,10.0,-100.00,NNW,341,7.0,16.0,21,0.00,,,0.00,983.000000,,2013-04-27 17:32:00,
2013-04-27 11:42:00,48.0,10.0,-100.00,NNW,341,7.0,16.0,21,0.00,,,0.00,983.000000,,2013-04-27 17:42:00,
2013-04-27 11:53:00,48.0,10.0,-100.00,NNW,341,7.0,16.0,21,0.00,,,0.00,983.000000,,2013-04-27 17:53:00,
2013-04-27 12:02:00,48.0,10.0,-100.00,NNW,341,7.0,16.0,21,0.00,,,0.00,983.000000,,2013-04-27 18:02:00,
2013-04-27 12:32:00,50.0,11.0,-100.00,NW,318,6.0,18.0,20,0.00,,,0.00,1118.000000,,2013-04-27 18:32:00,
2013-04-27 12:42:00,50.0,11.0,-100.00,NW,318,6.0,18.0,20,0.00,,,0.00,1118.000000,,2013-04-27 18:42:00,
2013-04-27 12:52:00,50.0,11.0,-100.00,NW,318,6.0,18.0,20,0.00,,,0.00,1118.000000,,2013-04-27 18:52:00,
2013-04-27 13:02:00,50.0,11.0,-100.00,NW,318,6.0,18.0,20,0.00,,,0.00,1118.000000,,2013-04-27 19:02:00,
2013-04-27 13:32:00,51.0,10.0,-100.00,NNW,347,6.0,15.0,19,0.00,,,0.00,1176.000000,,2013-04-27 19:32:00,
2013-04-27 13:42:00,51.0,10.0,-100.00,NNW,347,6.0,15.0,19,0.00,,,0.00,1176.000000,,2013-04-27 19:42:00,
2013-04-27 13:53:00,51.0,10.0,-100.00,NNW,347,6.0,15.0,19,0.00,,,0.00,1176.000000,,2013-04-27 19:53:00,
2013-04-27 14:02:00,51.0,10.0,-100.00,NNW,347,6.0,15.0,19,0.00,,,0.00,1176.000000,,2013-04-27 20:02:00,
2013-04-27 14:32:00,52.0,10.0,-100.00,NNW,337,8.0,16.0,18,0.00,,,0.00,1148.000000,,2013-04-27 20:32:00,
2013-04-27 14:42:00,52.0,10.0,-100.00,NNW,337,8.0,16.0,18,0.00,,,0.00,1148.000000,,2013-04-27 20:42:00,
2013-04-27 14:52:00,52.0,10.0,-100.00,NNW,337,8.0,16.0,18,0.00,,,0.00,1148.000000,,2013-04-27 20:52:00,
2013-04-27 15:02:00,52.0,10.0,-100.00,NNW,337,8.0,16.0,18,0.00,,,0.00,1148.000000,,2013-04-27 21:02:00,
2013-04-27 15:33:00,54.0,10.0,-100.00,NNW,327,5.0,17.0,17,0.00,,,0.00,1110.000000,,2013-04-27 21:33:00,
2013-04-27 15:43:00,54.0,10.0,-100.00,NNW,327,5.0,17.0,17,0.00,,,0.00,1110.000000,,2013-04-27 21:43:00,
2013-04-27 15:53:00,54.0,10.0,-100.00,NNW,327,5.0,17.0,17,0.00,,,0.00,1110.000000,,2013-04-27 21:53:00,
2013-04-27 16:02:00,54.0,10.0,-100.00,NNW,327,5.0,17.0,17,0.00,,,0.00,1110.000000,,2013-04-27 22:02:00,
2013-04-27 16:32:00,54.0,9.0,-100.00,NW,316,7.0,16.0,16,0.00,,,0.00,970.000000,,2013-04-27 22:32:00,
2013-04-27 16:42:00,54.0,9.0,-100.00,NW,316,7.0,16.0,16,0.00,,,0.00,970.000000,,2013-04-27 22:42:00,
2013-04-27 16:52:00,54.0,9.0,-100.00,NW,316,7.0,16.0,16,0.00,,,0.00,970.000000,,2013-04-27 22:52:00,
2013-04-27 17:02:00,54.0,9.0,-100.00,NW,316,7.0,16.0,16,0.00,,,0.00,970.000000,,2013-04-27 23:02:00,
2013-04-27 17:32:00,54.0,10.0,-100.00,NNW,332,7.0,16.0,17,0.00,,,0.00,772.000000,,2013-04-27 23:32:00,
2013-04-27 17:42:00,54.0,10.0,-100.00,NNW,332,7.0,16.0,17,0.00,,,0.00,772.000000,,2013-04-27 23:42:00,
2013-04-27 17:52:00,54.0,10.0,-100.00,NNW,332,7.0,16.0,17,0.00,,,0.00,772.000000,,2013-04-27 23:52:00,
2013-04-27 18:01:00,54.0,10.0,-100.00,NNW,332,7.0,16.0,17,0.00,,,0.00,772.000000,,2013-04-28 00:01:00,
2013-04-27 19:32:00,49.0,10.0,-100.00,NW,305,4.0,14.0,20,-99.99,,,0.00,203.000000,,2013-04-28 01:32:00,
2013-04-27 19:42:00,49.0,10.0,-100.00,NW,305,4.0,14.0,20,-99.99,,,0.00,203.000000,,2013-04-28 01:42:00,
2013-04-27 19:52:00,49.0,10.0,-100.00,NW,305,4.0,14.0,20,-99.99,,,0.00,203.000000,,2013-04-28 01:52:00,
2013-04-27 20:02:00,49.0,10.0,-100.00,NW,305,4.0,14.0,20,-99.99,,,0.00,203.000000,,2013-04-28 02:02:00,
2013-04-27 20:32:00,42.0,11.0,-100.00,West,278,2.0,10.0,28,0.00,,,0.00,18.000000,,2013-04-28 02:32:00,
2013-04-27 20:42:00,42.0,11.0,-100.00,West,278,2.0,10.0,28,0.00,,,0.00,18.000000,,2013-04-28 02:42:00,
2013-04-27 20:52:00,42.0,11.0,-100.00,West,278,2.0,10.0,28,0.00,,,0.00,18.000000,,2013-04-28 02:52:00,
2013-04-27 21:01:00,42.0,11.0,-100.00,West,278,2.0,10.0,28,0.00,,,0.00,18.000000,,2013-04-28 03:01:00,
2013-04-27 21:33:00,39.0,11.0,-100.00,WNW,302,2.0,5.0,31,0.00,,,0.00,0.000000,,2013-04-28 03:33:00,
2013-04-27 21:43:00,39.0,11.0,-100.00,WNW,302,2.0,5.0,31,0.00,,,0.00,0.000000,,2013-04-28 03:43:00,
2013-04-27 21:53:00,39.0,11.0,-100.00,WNW,302,2.0,5.0,31,0.00,,,0.00,0.000000,,2013-04-28 03:53:00,
2013-04-27 22:02:00,39.0,11.0,-100.00,WNW,302,2.0,5.0,31,0.00,,,0.00,0.000000,,2013-04-28 04:02:00,
2013-04-27 22:32:00,35.0,12.0,-100.00,NW,313,2.0,4.0,38,0.00,,,0.00,0.000000,,2013-04-28 04:32:00,
2013-04-27 22:43:00,35.0,12.0,-100.00,NW,313,2.0,4.0,38,0.00,,,0.00,0.000000,,2013-04-28 04:43:00,
2013-04-27 22:53:00,35.0,12.0,-100.00,NW,313,2.0,4.0,38,0.00,,,0.00,0.000000,,2013-04-28 04:53:00,
2013-04-27 23:02:00,35.0,12.0,-100.00,NW,313,2.0,4.0,38,0.00,,,0.00,0.000000,,2013-04-28 05:02:00,
2013-04-27 23:32:00,34.0,14.0,-100.00,NW,313,3.0,5.0,43,0.00,,,0.00,0.000000,,2013-04-28 05:32:00,
2013-04-27 23:42:00,34.0,14.0,-100.00,NW,313,3.0,5.0,43,0.00,,,0.00,0.000000,,2013-04-28 05:42:00,
2013-04-27 23:52:00,34.0,14.0,-100.00,NW,313,3.0,5.0,43,0.00,,,0.00,0.000000,,2013-04-28 05:52:00,